WTB08M MDSD-KTPA
Flight info
| Callsign | WTB08M |
|---|---|
| Flight time | 2h 32m |
| Altitude | 30000 |
| Route | MALVN Y396 RUMFO Y443 SUMAC DCT OCTAL BLFRG3 |
| Aircraft | A306/H-SDE3FGHIRWY/LB1 |
Departure
| Time | 2026-05-06 07:17 |
|---|---|
| Airport | Las Américas International Airport (MDSD) |
Arrival
| Time | 2026-05-06 09:49 |
|---|---|
| Airport | Tampa International Airport (KTPA) |
| Time | Latitude | Longitude | Altitude | Speed | Heading |
|---|---|---|---|---|---|
| 2026-05-06 06:43 | 18.42850 | -69.67430 | 75 ft | 0 kts | 308° |
| 2026-05-06 07:05 | 18.42842 | -69.67419 | 64 ft | 3 kts | 308° |
| 2026-05-06 07:05 | 18.42831 | -69.67403 | 64 ft | 3 kts | 314° |
| 2026-05-06 07:05 | 18.42814 | -69.67393 | 70 ft | 3 kts | 12° |
| 2026-05-06 07:05 | 18.42803 | -69.67398 | 64 ft | 0 kts | 39° |
| 2026-05-06 07:10 | 18.42805 | -69.67396 | 75 ft | 2 kts | 42° |
| 2026-05-06 07:10 | 18.42816 | -69.67382 | 62 ft | 5 kts | 50° |
| 2026-05-06 07:10 | 18.42845 | -69.67354 | 67 ft | 8 kts | 34° |
| 2026-05-06 07:10 | 18.42894 | -69.67340 | 67 ft | 9 kts | 6° |
| 2026-05-06 07:11 | 18.42955 | -69.67316 | 66 ft | 9 kts | 44° |
| 2026-05-06 07:11 | 18.42959 | -69.67251 | 71 ft | 9 kts | 95° |
| 2026-05-06 07:11 | 18.42954 | -69.67174 | 75 ft | 11 kts | 94° |
| 2026-05-06 07:11 | 18.42946 | -69.67107 | 72 ft | 8 kts | 99° |
| 2026-05-06 07:12 | 18.42921 | -69.67070 | 71 ft | 6 kts | 148° |
| 2026-05-06 07:12 | 18.42872 | -69.67052 | 72 ft | 10 kts | 161° |
| 2026-05-06 07:12 | 18.42767 | -69.67014 | 71 ft | 22 kts | 159° |
| 2026-05-06 07:12 | 18.42617 | -69.66958 | 69 ft | 22 kts | 160° |
| 2026-05-06 07:13 | 18.42476 | -69.66908 | 69 ft | 21 kts | 161° |
| 2026-05-06 07:13 | 18.42346 | -69.66860 | 66 ft | 19 kts | 159° |
| 2026-05-06 07:13 | 18.42252 | -69.66794 | 66 ft | 14 kts | 121° |
| 2026-05-06 07:13 | 18.42212 | -69.66716 | 84 ft | 10 kts | 116° |
| 2026-05-06 07:14 | 18.42187 | -69.66663 | 85 ft | 6 kts | 116° |
| 2026-05-06 07:14 | 18.42159 | -69.66620 | 85 ft | 8 kts | 127° |
| 2026-05-06 07:14 | 18.42170 | -69.66594 | 87 ft | 6 kts | 353° |
| 2026-05-06 07:14 | 18.42193 | -69.66605 | 84 ft | 0 kts | 342° |
| 2026-05-06 07:16 | 18.42220 | -69.66615 | 84 ft | 25 kts | 339° |
| 2026-05-06 07:16 | 18.42630 | -69.66765 | 86 ft | 98 kts | 341° |
| 2026-05-06 07:16 | 18.43484 | -69.67071 | 88 ft | 161 kts | 341° |
| 2026-05-06 07:17 | 18.44642 | -69.67531 | 681 ft | 183 kts | 339° |
| 2026-05-06 07:17 | 18.45820 | -69.68035 | 1615 ft | 195 kts | 340° |
| 2026-05-06 07:17 | 18.47195 | -69.68572 | 1861 ft | 225 kts | 341° |
| 2026-05-06 07:17 | 18.48744 | -69.69139 | 2240 ft | 246 kts | 342° |
| 2026-05-06 07:18 | 18.50441 | -69.69728 | 2703 ft | 264 kts | 343° |
| 2026-05-06 07:18 | 18.52211 | -69.70338 | 3393 ft | 271 kts | 343° |
| 2026-05-06 07:18 | 18.54019 | -69.70972 | 4134 ft | 276 kts | 343° |
| 2026-05-06 07:18 | 18.55860 | -69.71629 | 4896 ft | 282 kts | 343° |
| 2026-05-06 07:19 | 18.57686 | -69.72415 | 5653 ft | 287 kts | 330° |
| 2026-05-06 07:19 | 18.59185 | -69.73792 | 6509 ft | 287 kts | 306° |
| 2026-05-06 07:19 | 18.59973 | -69.75696 | 7269 ft | 286 kts | 278° |
| 2026-05-06 07:19 | 18.60065 | -69.77791 | 8021 ft | 288 kts | 268° |
| 2026-05-06 07:20 | 18.59996 | -69.79914 | 8753 ft | 291 kts | 266° |
| 2026-05-06 07:20 | 18.59908 | -69.82057 | 9520 ft | 295 kts | 266° |
| 2026-05-06 07:20 | 18.59823 | -69.84229 | 10241 ft | 299 kts | 266° |
| 2026-05-06 07:20 | 18.59739 | -69.86469 | 10612 ft | 315 kts | 266° |
| 2026-05-06 07:21 | 18.59682 | -69.88026 | 10797 ft | 326 kts | 266° |
| 2026-05-06 07:21 | 18.59594 | -69.90480 | 11063 ft | 342 kts | 267° |
| 2026-05-06 07:21 | 18.59526 | -69.93034 | 11298 ft | 357 kts | 269° |
| 2026-05-06 07:21 | 18.59772 | -69.95686 | 11544 ft | 371 kts | 281° |
| 2026-05-06 07:22 | 18.60607 | -69.98301 | 11811 ft | 382 kts | 295° |
| 2026-05-06 07:22 | 18.62052 | -70.00673 | 12244 ft | 388 kts | 309° |
| 2026-05-06 07:22 | 18.64016 | -70.02639 | 12727 ft | 391 kts | 321° |
| 2026-05-06 07:22 | 18.66218 | -70.04330 | 13226 ft | 393 kts | 324° |
| 2026-05-06 07:23 | 18.68467 | -70.05991 | 13727 ft | 395 kts | 324° |
| 2026-05-06 07:23 | 18.70727 | -70.07665 | 14178 ft | 397 kts | 323° |
| 2026-05-06 07:23 | 18.72989 | -70.09348 | 14633 ft | 398 kts | 323° |
| 2026-05-06 07:23 | 18.75256 | -70.11041 | 15071 ft | 400 kts | 323° |
| 2026-05-06 07:24 | 18.77500 | -70.12721 | 15494 ft | 402 kts | 323° |
| 2026-05-06 07:24 | 18.79817 | -70.14458 | 15941 ft | 404 kts | 323° |
| 2026-05-06 07:24 | 18.82082 | -70.16155 | 16375 ft | 406 kts | 323° |
| 2026-05-06 07:24 | 18.84390 | -70.17886 | 16819 ft | 408 kts | 323° |
| 2026-05-06 07:25 | 18.86701 | -70.19622 | 17258 ft | 410 kts | 323° |
| 2026-05-06 07:25 | 18.89032 | -70.21374 | 17709 ft | 412 kts | 323° |
| 2026-05-06 07:25 | 18.91372 | -70.23133 | 18148 ft | 414 kts | 323° |
| 2026-05-06 07:25 | 18.93718 | -70.24896 | 18527 ft | 416 kts | 323° |
| 2026-05-06 07:26 | 18.96083 | -70.26674 | 18878 ft | 418 kts | 323° |
| 2026-05-06 07:26 | 18.98454 | -70.28457 | 19223 ft | 419 kts | 323° |
| 2026-05-06 07:26 | 19.00835 | -70.30249 | 19562 ft | 421 kts | 323° |
| 2026-05-06 07:26 | 19.03220 | -70.32044 | 19904 ft | 422 kts | 323° |
| 2026-05-06 07:27 | 19.05616 | -70.33849 | 20248 ft | 424 kts | 323° |
| 2026-05-06 07:27 | 19.08024 | -70.35663 | 20590 ft | 425 kts | 324° |
| 2026-05-06 07:27 | 19.10432 | -70.37477 | 20911 ft | 426 kts | 324° |
| 2026-05-06 07:27 | 19.12847 | -70.39298 | 21210 ft | 428 kts | 324° |
| 2026-05-06 07:28 | 19.15284 | -70.41136 | 21525 ft | 429 kts | 324° |
| 2026-05-06 07:28 | 19.17715 | -70.42970 | 21836 ft | 431 kts | 324° |
| 2026-05-06 07:28 | 19.22617 | -70.46670 | 22413 ft | 434 kts | 324° |
| 2026-05-06 07:29 | 19.25074 | -70.48526 | 22724 ft | 435 kts | 324° |
| 2026-05-06 07:29 | 19.27546 | -70.50394 | 23008 ft | 437 kts | 324° |
| 2026-05-06 07:29 | 19.30027 | -70.52269 | 23297 ft | 438 kts | 324° |
| 2026-05-06 07:29 | 19.32517 | -70.54153 | 23575 ft | 440 kts | 324° |
| 2026-05-06 07:30 | 19.35004 | -70.56034 | 23841 ft | 440 kts | 325° |
| 2026-05-06 07:30 | 19.37499 | -70.57923 | 24073 ft | 441 kts | 325° |
| 2026-05-06 07:30 | 19.40005 | -70.59821 | 24291 ft | 443 kts | 324° |
| 2026-05-06 07:30 | 19.42468 | -70.61713 | 24537 ft | 443 kts | 324° |
| 2026-05-06 07:31 | 19.44964 | -70.63648 | 24767 ft | 444 kts | 324° |
| 2026-05-06 07:31 | 19.47459 | -70.65586 | 24965 ft | 446 kts | 324° |
| 2026-05-06 07:31 | 19.49967 | -70.67534 | 25183 ft | 447 kts | 324° |
| 2026-05-06 07:31 | 19.52481 | -70.69487 | 25376 ft | 448 kts | 324° |
| 2026-05-06 07:32 | 19.54996 | -70.71441 | 25585 ft | 450 kts | 324° |
| 2026-05-06 07:32 | 19.57525 | -70.73407 | 25784 ft | 451 kts | 324° |
| 2026-05-06 07:32 | 19.60062 | -70.75380 | 25993 ft | 452 kts | 324° |
| 2026-05-06 07:32 | 19.62605 | -70.77357 | 26208 ft | 453 kts | 324° |
| 2026-05-06 07:33 | 19.65152 | -70.79340 | 26409 ft | 454 kts | 323° |
| 2026-05-06 07:33 | 19.67703 | -70.81326 | 26589 ft | 456 kts | 324° |
| 2026-05-06 07:33 | 19.70265 | -70.83321 | 26790 ft | 457 kts | 323° |
| 2026-05-06 07:33 | 19.72825 | -70.85315 | 26970 ft | 458 kts | 323° |
| 2026-05-06 07:34 | 19.75399 | -70.87321 | 27170 ft | 459 kts | 323° |
| 2026-05-06 07:34 | 19.77975 | -70.89329 | 27405 ft | 459 kts | 323° |
| 2026-05-06 07:34 | 19.80550 | -70.91339 | 27603 ft | 459 kts | 323° |
| 2026-05-06 07:34 | 19.83093 | -70.93323 | 27764 ft | 460 kts | 323° |
| 2026-05-06 07:35 | 19.85688 | -70.95349 | 27930 ft | 461 kts | 323° |
| 2026-05-06 07:35 | 19.88269 | -70.97365 | 28181 ft | 460 kts | 323° |
| 2026-05-06 07:35 | 19.90849 | -70.99380 | 28416 ft | 460 kts | 323° |
| 2026-05-06 07:35 | 19.93425 | -71.01394 | 28657 ft | 459 kts | 323° |
| 2026-05-06 07:36 | 19.95998 | -71.03406 | 28911 ft | 458 kts | 323° |
| 2026-05-06 07:36 | 19.98566 | -71.05414 | 29169 ft | 457 kts | 323° |
| 2026-05-06 07:36 | 20.01121 | -71.07415 | 29424 ft | 456 kts | 323° |
| 2026-05-06 07:36 | 20.03677 | -71.09416 | 29689 ft | 456 kts | 323° |
| 2026-05-06 07:37 | 20.06229 | -71.11415 | 29934 ft | 455 kts | 323° |
| 2026-05-06 07:37 | 20.08778 | -71.13412 | 30164 ft | 454 kts | 323° |
| 2026-05-06 07:37 | 20.11314 | -71.15400 | 30393 ft | 453 kts | 322° |
| 2026-05-06 07:37 | 20.13819 | -71.17364 | 30668 ft | 451 kts | 322° |
| 2026-05-06 07:38 | 20.16341 | -71.19343 | 30920 ft | 449 kts | 322° |
| 2026-05-06 07:38 | 20.18856 | -71.21317 | 31162 ft | 448 kts | 322° |
| 2026-05-06 07:38 | 20.21359 | -71.23283 | 31415 ft | 447 kts | 322° |
| 2026-05-06 07:38 | 20.23861 | -71.25248 | 31671 ft | 445 kts | 322° |
| 2026-05-06 07:39 | 20.26354 | -71.27207 | 31916 ft | 444 kts | 322° |
| 2026-05-06 07:39 | 20.28834 | -71.29157 | 31991 ft | 442 kts | 322° |
| 2026-05-06 07:39 | 20.33718 | -71.32998 | 32000 ft | 433 kts | 322° |
| 2026-05-06 07:40 | 20.38564 | -71.36814 | 32003 ft | 432 kts | 322° |
| 2026-05-06 07:40 | 20.43017 | -71.41089 | 32006 ft | 431 kts | 311° |
| 2026-05-06 07:41 | 20.46835 | -71.46029 | 32003 ft | 431 kts | 308° |
| 2026-05-06 07:41 | 20.50537 | -71.51071 | 32003 ft | 431 kts | 308° |
| 2026-05-06 07:42 | 20.54239 | -71.56107 | 31999 ft | 431 kts | 308° |
| 2026-05-06 07:42 | 20.57938 | -71.61097 | 32002 ft | 431 kts | 308° |
| 2026-05-06 07:43 | 20.61686 | -71.66140 | 32002 ft | 430 kts | 308° |
| 2026-05-06 07:43 | 20.65343 | -71.71061 | 32002 ft | 422 kts | 308° |
| 2026-05-06 07:44 | 20.69001 | -71.75990 | 32003 ft | 420 kts | 308° |
| 2026-05-06 07:44 | 20.72628 | -71.80881 | 32003 ft | 420 kts | 308° |
| 2026-05-06 07:45 | 20.76233 | -71.85749 | 32004 ft | 420 kts | 308° |
| 2026-05-06 07:45 | 20.79859 | -71.90649 | 32002 ft | 420 kts | 308° |
| 2026-05-06 07:46 | 20.83482 | -71.95548 | 32001 ft | 419 kts | 308° |
| 2026-05-06 07:46 | 20.87091 | -72.00432 | 32000 ft | 418 kts | 308° |
| 2026-05-06 07:47 | 20.90695 | -72.05315 | 31999 ft | 418 kts | 308° |
| 2026-05-06 07:47 | 20.94298 | -72.10200 | 32000 ft | 418 kts | 308° |
| 2026-05-06 07:48 | 20.97900 | -72.15087 | 32003 ft | 418 kts | 308° |
| 2026-05-06 07:48 | 21.01496 | -72.19973 | 32003 ft | 418 kts | 308° |
| 2026-05-06 07:49 | 21.05096 | -72.24865 | 32003 ft | 418 kts | 308° |
| 2026-05-06 07:49 | 21.08688 | -72.29753 | 32002 ft | 417 kts | 308° |
| 2026-05-06 07:50 | 21.12272 | -72.34633 | 32006 ft | 416 kts | 308° |
| 2026-05-06 07:50 | 21.15853 | -72.39513 | 32010 ft | 416 kts | 308° |
| 2026-05-06 07:51 | 21.19406 | -72.44361 | 32031 ft | 416 kts | 308° |
| 2026-05-06 07:51 | 21.22975 | -72.49234 | 32008 ft | 415 kts | 308° |
| 2026-05-06 07:52 | 21.26538 | -72.54103 | 32010 ft | 415 kts | 308° |
| 2026-05-06 07:52 | 21.30095 | -72.58968 | 32015 ft | 415 kts | 308° |
| 2026-05-06 07:53 | 21.33648 | -72.63832 | 32013 ft | 414 kts | 308° |
| 2026-05-06 07:53 | 21.37191 | -72.68686 | 32014 ft | 412 kts | 308° |
| 2026-05-06 07:54 | 21.40728 | -72.73536 | 32013 ft | 412 kts | 308° |
| 2026-05-06 07:54 | 21.44265 | -72.78392 | 32016 ft | 412 kts | 308° |
| 2026-05-06 07:55 | 21.47796 | -72.83241 | 32015 ft | 412 kts | 308° |
| 2026-05-06 07:55 | 21.51330 | -72.88101 | 32010 ft | 412 kts | 308° |
| 2026-05-06 07:56 | 21.54860 | -72.92959 | 32018 ft | 412 kts | 308° |
| 2026-05-06 07:56 | 21.58348 | -72.97763 | 32016 ft | 412 kts | 308° |
| 2026-05-06 07:57 | 21.61853 | -73.02595 | 32010 ft | 407 kts | 308° |
| 2026-05-06 07:57 | 21.65326 | -73.07387 | 32010 ft | 405 kts | 308° |
| 2026-05-06 07:58 | 21.68791 | -73.12172 | 32012 ft | 405 kts | 308° |
| 2026-05-06 07:58 | 21.72256 | -73.16961 | 32009 ft | 405 kts | 308° |
| 2026-05-06 07:59 | 21.75714 | -73.21745 | 32007 ft | 405 kts | 308° |
| 2026-05-06 07:59 | 21.79155 | -73.26510 | 32017 ft | 405 kts | 308° |
| 2026-05-06 08:00 | 21.82616 | -73.31308 | 32010 ft | 405 kts | 308° |
| 2026-05-06 08:00 | 21.86068 | -73.36095 | 32015 ft | 404 kts | 308° |
| 2026-05-06 08:01 | 21.89513 | -73.40877 | 32016 ft | 404 kts | 308° |
| 2026-05-06 08:01 | 21.92964 | -73.45673 | 32018 ft | 404 kts | 308° |
| 2026-05-06 08:02 | 21.96410 | -73.50466 | 32017 ft | 404 kts | 308° |
| 2026-05-06 08:02 | 21.99835 | -73.55233 | 32017 ft | 404 kts | 308° |
| 2026-05-06 08:03 | 22.03278 | -73.60031 | 32010 ft | 404 kts | 308° |
| 2026-05-06 08:03 | 22.06715 | -73.64824 | 32016 ft | 404 kts | 308° |
| 2026-05-06 08:04 | 22.10156 | -73.69627 | 32011 ft | 404 kts | 308° |
| 2026-05-06 08:04 | 22.13596 | -73.74433 | 32013 ft | 404 kts | 308° |
| 2026-05-06 08:05 | 22.17036 | -73.79242 | 32015 ft | 404 kts | 308° |
| 2026-05-06 08:05 | 22.20468 | -73.84045 | 32016 ft | 404 kts | 308° |
| 2026-05-06 08:06 | 22.23878 | -73.88822 | 32012 ft | 404 kts | 308° |
| 2026-05-06 08:06 | 22.26751 | -73.92849 | 32011 ft | 404 kts | 308° |
| 2026-05-06 08:07 | 22.30184 | -73.97666 | 32027 ft | 404 kts | 308° |
| 2026-05-06 08:07 | 22.33588 | -74.02447 | 32006 ft | 404 kts | 309° |
| 2026-05-06 08:08 | 22.37010 | -74.07257 | 32019 ft | 403 kts | 309° |
| 2026-05-06 08:08 | 22.40420 | -74.12055 | 32003 ft | 403 kts | 309° |
| 2026-05-06 08:09 | 22.43836 | -74.16865 | 32017 ft | 403 kts | 309° |
| 2026-05-06 08:09 | 22.47244 | -74.21668 | 32017 ft | 403 kts | 309° |
| 2026-05-06 08:10 | 22.50660 | -74.26488 | 32019 ft | 403 kts | 309° |
| 2026-05-06 08:10 | 22.54070 | -74.31303 | 32012 ft | 403 kts | 309° |
| 2026-05-06 08:11 | 22.57460 | -74.36093 | 32012 ft | 403 kts | 309° |
| 2026-05-06 08:11 | 22.60861 | -74.40906 | 32019 ft | 401 kts | 309° |
| 2026-05-06 08:12 | 22.64250 | -74.45705 | 32014 ft | 401 kts | 309° |
| 2026-05-06 08:12 | 22.67638 | -74.50506 | 32014 ft | 401 kts | 309° |
| 2026-05-06 08:13 | 22.70998 | -74.55271 | 32007 ft | 400 kts | 309° |
| 2026-05-06 08:13 | 22.74373 | -74.60063 | 32016 ft | 400 kts | 309° |
| 2026-05-06 08:14 | 22.77752 | -74.64865 | 32023 ft | 400 kts | 309° |
| 2026-05-06 08:14 | 22.81128 | -74.69668 | 32022 ft | 400 kts | 309° |
| 2026-05-06 08:15 | 22.84499 | -74.74468 | 32022 ft | 400 kts | 309° |
| 2026-05-06 08:15 | 22.87873 | -74.79275 | 32018 ft | 400 kts | 309° |
| 2026-05-06 08:16 | 22.91246 | -74.84088 | 32015 ft | 400 kts | 309° |
| 2026-05-06 08:16 | 22.94612 | -74.88893 | 32022 ft | 400 kts | 309° |
| 2026-05-06 08:17 | 22.97979 | -74.93704 | 32020 ft | 400 kts | 309° |
| 2026-05-06 08:17 | 23.01347 | -74.98521 | 32022 ft | 400 kts | 309° |
| 2026-05-06 08:18 | 23.04690 | -75.03307 | 32020 ft | 400 kts | 309° |
| 2026-05-06 08:18 | 23.08059 | -75.08092 | 32017 ft | 398 kts | 312° |
| 2026-05-06 08:19 | 23.11911 | -75.12360 | 32020 ft | 395 kts | 317° |
| 2026-05-06 08:19 | 23.15932 | -75.16426 | 32009 ft | 394 kts | 319° |
| 2026-05-06 08:20 | 23.19985 | -75.20459 | 32023 ft | 395 kts | 319° |
| 2026-05-06 08:20 | 23.24031 | -75.24497 | 32019 ft | 394 kts | 319° |
| 2026-05-06 08:21 | 23.28065 | -75.28539 | 32020 ft | 394 kts | 318° |
| 2026-05-06 08:21 | 23.32100 | -75.32591 | 32021 ft | 394 kts | 318° |
| 2026-05-06 08:22 | 23.36128 | -75.36640 | 32025 ft | 394 kts | 318° |
| 2026-05-06 08:22 | 23.40160 | -75.40696 | 32019 ft | 394 kts | 318° |
| 2026-05-06 08:23 | 23.44157 | -75.44721 | 32005 ft | 393 kts | 319° |
| 2026-05-06 08:23 | 23.48173 | -75.48768 | 32007 ft | 393 kts | 319° |
| 2026-05-06 08:24 | 23.52186 | -75.52814 | 32020 ft | 393 kts | 319° |
| 2026-05-06 08:24 | 23.56191 | -75.56857 | 32006 ft | 393 kts | 319° |
| 2026-05-06 08:25 | 23.60190 | -75.60896 | 32007 ft | 393 kts | 319° |
| 2026-05-06 08:25 | 23.64194 | -75.64945 | 32023 ft | 393 kts | 319° |
| 2026-05-06 08:26 | 23.68207 | -75.69006 | 32017 ft | 393 kts | 319° |
| 2026-05-06 08:26 | 23.72214 | -75.73064 | 32032 ft | 393 kts | 319° |
| 2026-05-06 08:27 | 23.76219 | -75.77125 | 32015 ft | 392 kts | 319° |
| 2026-05-06 08:27 | 23.80192 | -75.81157 | 32022 ft | 392 kts | 319° |
| 2026-05-06 08:28 | 23.84187 | -75.85214 | 32025 ft | 392 kts | 319° |
| 2026-05-06 08:28 | 23.88193 | -75.89286 | 32024 ft | 392 kts | 319° |
| 2026-05-06 08:29 | 23.92192 | -75.93354 | 32018 ft | 392 kts | 319° |
| 2026-05-06 08:29 | 23.96186 | -75.97421 | 32025 ft | 392 kts | 319° |
| 2026-05-06 08:30 | 24.00182 | -76.01494 | 32022 ft | 392 kts | 318° |
| 2026-05-06 08:30 | 24.04172 | -76.05565 | 32027 ft | 392 kts | 318° |
| 2026-05-06 08:31 | 24.08168 | -76.09644 | 32025 ft | 392 kts | 318° |
| 2026-05-06 08:31 | 24.12134 | -76.13697 | 32025 ft | 393 kts | 318° |
| 2026-05-06 08:32 | 24.16129 | -76.17783 | 32026 ft | 393 kts | 318° |
| 2026-05-06 08:32 | 24.20130 | -76.21879 | 32024 ft | 394 kts | 318° |
| 2026-05-06 08:33 | 24.24131 | -76.25979 | 32022 ft | 393 kts | 318° |
| 2026-05-06 08:33 | 24.28132 | -76.30082 | 32019 ft | 394 kts | 318° |
| 2026-05-06 08:34 | 24.34097 | -76.36207 | 32017 ft | 394 kts | 318° |
| 2026-05-06 08:35 | 24.38102 | -76.40324 | 32023 ft | 394 kts | 318° |
| 2026-05-06 08:35 | 24.42094 | -76.44431 | 32022 ft | 393 kts | 318° |
| 2026-05-06 08:36 | 24.46083 | -76.48539 | 32023 ft | 392 kts | 318° |
| 2026-05-06 08:36 | 24.50057 | -76.52635 | 32016 ft | 392 kts | 318° |
| 2026-05-06 08:37 | 24.54045 | -76.56749 | 32024 ft | 393 kts | 318° |
| 2026-05-06 08:37 | 24.58035 | -76.60869 | 32018 ft | 393 kts | 318° |
| 2026-05-06 08:38 | 24.62018 | -76.64986 | 32025 ft | 393 kts | 318° |
| 2026-05-06 08:38 | 24.66000 | -76.69105 | 32019 ft | 393 kts | 318° |
| 2026-05-06 08:39 | 24.69964 | -76.73210 | 32021 ft | 393 kts | 318° |
| 2026-05-06 08:39 | 24.73957 | -76.77348 | 32041 ft | 393 kts | 318° |
| 2026-05-06 08:40 | 24.77937 | -76.81477 | 32014 ft | 392 kts | 318° |
| 2026-05-06 08:40 | 24.81895 | -76.85588 | 32030 ft | 391 kts | 318° |
| 2026-05-06 08:41 | 24.85866 | -76.89714 | 32026 ft | 393 kts | 318° |
| 2026-05-06 08:41 | 24.89818 | -76.93825 | 32028 ft | 394 kts | 318° |
| 2026-05-06 08:42 | 24.93798 | -76.97969 | 32016 ft | 394 kts | 317° |
| 2026-05-06 08:42 | 24.97782 | -77.02122 | 32027 ft | 394 kts | 317° |
| 2026-05-06 08:43 | 25.01760 | -77.06271 | 32019 ft | 394 kts | 317° |
| 2026-05-06 08:43 | 25.05743 | -77.10430 | 32022 ft | 394 kts | 317° |
| 2026-05-06 08:44 | 25.09720 | -77.14587 | 32026 ft | 393 kts | 317° |
| 2026-05-06 08:44 | 25.13683 | -77.18732 | 32041 ft | 392 kts | 317° |
| 2026-05-06 08:45 | 25.17643 | -77.22878 | 32029 ft | 392 kts | 317° |
| 2026-05-06 08:45 | 25.21605 | -77.27031 | 32037 ft | 394 kts | 317° |
| 2026-05-06 08:46 | 25.25594 | -77.31216 | 32035 ft | 395 kts | 317° |
| 2026-05-06 08:46 | 25.29085 | -77.35921 | 32032 ft | 399 kts | 303° |
| 2026-05-06 08:47 | 25.31304 | -77.41579 | 32027 ft | 403 kts | 293° |
| 2026-05-06 08:47 | 25.33135 | -77.47441 | 32023 ft | 404 kts | 293° |
| 2026-05-06 08:48 | 25.34951 | -77.53289 | 32026 ft | 404 kts | 293° |
| 2026-05-06 08:48 | 25.36788 | -77.59201 | 32026 ft | 404 kts | 293° |
| 2026-05-06 08:49 | 25.38603 | -77.65050 | 32023 ft | 406 kts | 292° |
| 2026-05-06 08:49 | 25.40436 | -77.70963 | 32025 ft | 407 kts | 292° |
| 2026-05-06 08:50 | 25.42269 | -77.76889 | 32032 ft | 407 kts | 292° |
| 2026-05-06 08:50 | 25.44100 | -77.82816 | 32028 ft | 407 kts | 292° |
| 2026-05-06 08:51 | 25.45925 | -77.88735 | 32019 ft | 405 kts | 292° |
| 2026-05-06 08:51 | 25.47738 | -77.94624 | 32029 ft | 404 kts | 292° |
| 2026-05-06 08:52 | 25.49555 | -78.00530 | 32026 ft | 406 kts | 291° |
| 2026-05-06 08:52 | 25.51368 | -78.06437 | 32028 ft | 408 kts | 291° |
| 2026-05-06 08:53 | 25.53192 | -78.12389 | 32030 ft | 408 kts | 291° |
| 2026-05-06 08:53 | 25.55014 | -78.18343 | 32030 ft | 408 kts | 291° |
| 2026-05-06 08:54 | 25.56526 | -78.23295 | 32023 ft | 408 kts | 291° |
| 2026-05-06 08:54 | 25.58342 | -78.29245 | 32032 ft | 408 kts | 291° |
| 2026-05-06 08:55 | 25.60158 | -78.35209 | 32029 ft | 408 kts | 291° |
| 2026-05-06 08:55 | 25.61971 | -78.41174 | 32035 ft | 408 kts | 291° |
| 2026-05-06 08:56 | 25.63781 | -78.47133 | 32032 ft | 408 kts | 291° |
| 2026-05-06 08:56 | 25.65589 | -78.53102 | 32029 ft | 408 kts | 291° |
| 2026-05-06 08:57 | 25.67394 | -78.59065 | 32026 ft | 408 kts | 291° |
| 2026-05-06 08:57 | 25.69198 | -78.65039 | 32037 ft | 408 kts | 291° |
| 2026-05-06 08:58 | 25.70999 | -78.71011 | 32028 ft | 409 kts | 291° |
| 2026-05-06 08:58 | 25.72809 | -78.77019 | 32034 ft | 412 kts | 291° |
| 2026-05-06 08:59 | 25.74622 | -78.83052 | 32030 ft | 412 kts | 291° |
| 2026-05-06 08:59 | 25.76420 | -78.89045 | 32036 ft | 412 kts | 291° |
| 2026-05-06 09:00 | 25.78227 | -78.95078 | 32033 ft | 412 kts | 291° |
| 2026-05-06 09:00 | 25.80036 | -79.01125 | 32035 ft | 412 kts | 291° |
| 2026-05-06 09:01 | 25.81839 | -79.07166 | 32035 ft | 412 kts | 291° |
| 2026-05-06 09:01 | 25.83642 | -79.13212 | 32040 ft | 414 kts | 291° |
| 2026-05-06 09:02 | 25.85449 | -79.19287 | 32048 ft | 414 kts | 291° |
| 2026-05-06 09:02 | 25.87252 | -79.25356 | 32037 ft | 413 kts | 291° |
| 2026-05-06 09:03 | 25.89033 | -79.31365 | 32026 ft | 412 kts | 291° |
| 2026-05-06 09:03 | 25.90824 | -79.37413 | 32037 ft | 412 kts | 291° |
| 2026-05-06 09:04 | 25.92614 | -79.43469 | 32032 ft | 412 kts | 291° |
| 2026-05-06 09:04 | 25.94400 | -79.49526 | 32035 ft | 413 kts | 291° |
| 2026-05-06 09:05 | 25.96187 | -79.55593 | 32042 ft | 413 kts | 291° |
| 2026-05-06 09:05 | 25.97970 | -79.61657 | 32036 ft | 413 kts | 291° |
| 2026-05-06 09:06 | 25.99754 | -79.67736 | 32039 ft | 413 kts | 291° |
| 2026-05-06 09:06 | 26.01521 | -79.73767 | 32042 ft | 413 kts | 291° |
| 2026-05-06 09:07 | 26.03297 | -79.79838 | 32036 ft | 413 kts | 291° |
| 2026-05-06 09:07 | 26.05070 | -79.85911 | 32044 ft | 413 kts | 291° |
| 2026-05-06 09:08 | 26.06841 | -79.91985 | 32042 ft | 413 kts | 291° |
| 2026-05-06 09:08 | 26.08609 | -79.98064 | 32035 ft | 413 kts | 291° |
| 2026-05-06 09:09 | 26.10377 | -80.04149 | 32039 ft | 413 kts | 291° |
| 2026-05-06 09:09 | 26.12140 | -80.10228 | 32034 ft | 413 kts | 291° |
| 2026-05-06 09:10 | 26.13902 | -80.16317 | 32047 ft | 413 kts | 291° |
| 2026-05-06 09:10 | 26.15996 | -80.22233 | 32053 ft | 409 kts | 299° |
| 2026-05-06 09:11 | 26.18675 | -80.27805 | 32048 ft | 408 kts | 300° |
| 2026-05-06 09:11 | 26.21382 | -80.33372 | 32046 ft | 408 kts | 300° |
| 2026-05-06 09:12 | 26.24077 | -80.38938 | 32046 ft | 409 kts | 300° |
| 2026-05-06 09:12 | 26.26756 | -80.44481 | 32043 ft | 408 kts | 300° |
| 2026-05-06 09:13 | 26.29438 | -80.50041 | 32046 ft | 407 kts | 300° |
| 2026-05-06 09:13 | 26.32122 | -80.55609 | 32046 ft | 407 kts | 300° |
| 2026-05-06 09:14 | 26.34799 | -80.61174 | 32044 ft | 407 kts | 300° |
| 2026-05-06 09:14 | 26.37472 | -80.66735 | 32047 ft | 407 kts | 300° |
| 2026-05-06 09:15 | 26.40142 | -80.72296 | 32049 ft | 407 kts | 300° |
| 2026-05-06 09:15 | 26.42812 | -80.77865 | 32050 ft | 407 kts | 300° |
| 2026-05-06 09:16 | 26.45476 | -80.83429 | 32054 ft | 407 kts | 300° |
| 2026-05-06 09:16 | 26.48138 | -80.88998 | 32054 ft | 407 kts | 300° |
| 2026-05-06 09:17 | 26.50800 | -80.94572 | 32054 ft | 406 kts | 300° |
| 2026-05-06 09:17 | 26.53436 | -81.00098 | 32054 ft | 405 kts | 300° |
| 2026-05-06 09:18 | 26.56085 | -81.05658 | 32052 ft | 405 kts | 300° |
| 2026-05-06 09:18 | 26.58729 | -81.11216 | 32053 ft | 405 kts | 300° |
| 2026-05-06 09:19 | 26.61370 | -81.16775 | 32052 ft | 404 kts | 300° |
| 2026-05-06 09:19 | 26.64184 | -81.22203 | 32056 ft | 404 kts | 307° |
| 2026-05-06 09:20 | 26.67715 | -81.27199 | 32055 ft | 415 kts | 310° |
| 2026-05-06 09:20 | 26.71376 | -81.32265 | 32053 ft | 419 kts | 310° |
| 2026-05-06 09:21 | 26.75028 | -81.37336 | 31781 ft | 418 kts | 310° |
| 2026-05-06 09:21 | 26.76831 | -81.39842 | 31533 ft | 419 kts | 309° |
| 2026-05-06 09:21 | 26.78660 | -81.42389 | 31301 ft | 420 kts | 309° |
| 2026-05-06 09:21 | 26.80492 | -81.44940 | 31079 ft | 418 kts | 309° |
| 2026-05-06 09:22 | 26.82293 | -81.47451 | 30736 ft | 409 kts | 309° |
| 2026-05-06 09:22 | 26.84061 | -81.49918 | 30256 ft | 403 kts | 309° |
| 2026-05-06 09:22 | 26.85805 | -81.52351 | 29754 ft | 397 kts | 309° |
| 2026-05-06 09:22 | 26.87520 | -81.54747 | 29265 ft | 391 kts | 309° |
| 2026-05-06 09:23 | 26.89208 | -81.57105 | 28841 ft | 385 kts | 309° |
| 2026-05-06 09:23 | 26.90868 | -81.59426 | 28418 ft | 378 kts | 309° |
| 2026-05-06 09:23 | 26.92503 | -81.61713 | 28014 ft | 373 kts | 309° |
| 2026-05-06 09:23 | 26.94099 | -81.63947 | 27579 ft | 369 kts | 309° |
| 2026-05-06 09:24 | 26.95696 | -81.66182 | 27155 ft | 365 kts | 309° |
| 2026-05-06 09:24 | 26.97271 | -81.68388 | 26757 ft | 361 kts | 309° |
| 2026-05-06 09:24 | 26.98836 | -81.70581 | 26343 ft | 358 kts | 309° |
| 2026-05-06 09:24 | 27.00386 | -81.72754 | 25944 ft | 355 kts | 309° |
| 2026-05-06 09:25 | 27.01926 | -81.74915 | 25542 ft | 353 kts | 309° |
| 2026-05-06 09:25 | 27.03455 | -81.77060 | 25135 ft | 351 kts | 309° |
| 2026-05-06 09:25 | 27.04971 | -81.79189 | 24724 ft | 349 kts | 309° |
| 2026-05-06 09:25 | 27.06487 | -81.81318 | 24316 ft | 348 kts | 309° |
| 2026-05-06 09:26 | 27.08038 | -81.83395 | 23906 ft | 346 kts | 314° |
| 2026-05-06 09:26 | 27.09846 | -81.85176 | 23469 ft | 345 kts | 321° |
| 2026-05-06 09:26 | 27.11753 | -81.86810 | 23029 ft | 343 kts | 323° |
| 2026-05-06 09:26 | 27.13639 | -81.88394 | 22612 ft | 341 kts | 323° |
| 2026-05-06 09:27 | 27.15533 | -81.89985 | 22200 ft | 338 kts | 323° |
| 2026-05-06 09:27 | 27.17409 | -81.91567 | 21796 ft | 336 kts | 323° |
| 2026-05-06 09:27 | 27.19271 | -81.93139 | 21386 ft | 334 kts | 323° |
| 2026-05-06 09:27 | 27.21122 | -81.94704 | 20991 ft | 331 kts | 323° |
| 2026-05-06 09:28 | 27.22953 | -81.96254 | 20597 ft | 329 kts | 323° |
| 2026-05-06 09:28 | 27.24781 | -81.97802 | 20213 ft | 328 kts | 323° |
| 2026-05-06 09:28 | 27.26595 | -81.99339 | 19790 ft | 327 kts | 323° |
| 2026-05-06 09:28 | 27.28406 | -82.00875 | 19383 ft | 325 kts | 323° |
| 2026-05-06 09:29 | 27.30204 | -82.02401 | 18985 ft | 323 kts | 323° |
| 2026-05-06 09:29 | 27.32001 | -82.03926 | 18350 ft | 327 kts | 323° |
| 2026-05-06 09:29 | 27.33825 | -82.05474 | 17903 ft | 324 kts | 323° |
| 2026-05-06 09:29 | 27.35604 | -82.06985 | 17674 ft | 315 kts | 323° |
| 2026-05-06 09:30 | 27.37318 | -82.08486 | 17352 ft | 310 kts | 322° |
| 2026-05-06 09:30 | 27.38956 | -82.09993 | 16976 ft | 308 kts | 321° |
| 2026-05-06 09:30 | 27.40603 | -82.11523 | 16578 ft | 306 kts | 321° |
| 2026-05-06 09:30 | 27.42239 | -82.13046 | 16208 ft | 304 kts | 321° |
| 2026-05-06 09:31 | 27.43858 | -82.14572 | 15817 ft | 303 kts | 319° |
| 2026-05-06 09:31 | 27.45397 | -82.16183 | 15433 ft | 302 kts | 317° |
| 2026-05-06 09:31 | 27.46911 | -82.17829 | 15043 ft | 301 kts | 317° |
| 2026-05-06 09:31 | 27.48416 | -82.19476 | 14619 ft | 302 kts | 316° |
| 2026-05-06 09:32 | 27.49926 | -82.21128 | 14202 ft | 303 kts | 316° |
| 2026-05-06 09:32 | 27.51437 | -82.22782 | 13814 ft | 302 kts | 316° |
| 2026-05-06 09:32 | 27.52945 | -82.24432 | 13400 ft | 301 kts | 316° |
| 2026-05-06 09:32 | 27.54444 | -82.26075 | 13018 ft | 299 kts | 316° |
| 2026-05-06 09:33 | 27.55935 | -82.27708 | 12626 ft | 298 kts | 316° |
| 2026-05-06 09:33 | 27.57415 | -82.29329 | 12245 ft | 297 kts | 316° |
| 2026-05-06 09:33 | 27.58892 | -82.30948 | 11869 ft | 295 kts | 317° |
| 2026-05-06 09:33 | 27.60363 | -82.32561 | 11503 ft | 294 kts | 317° |
| 2026-05-06 09:34 | 27.61810 | -82.34147 | 11132 ft | 293 kts | 317° |
| 2026-05-06 09:34 | 27.63269 | -82.35748 | 10733 ft | 293 kts | 317° |
| 2026-05-06 09:34 | 27.64734 | -82.37356 | 10337 ft | 294 kts | 317° |
| 2026-05-06 09:34 | 27.66212 | -82.38979 | 10051 ft | 300 kts | 317° |
| 2026-05-06 09:35 | 27.67728 | -82.40618 | 9987 ft | 298 kts | 320° |
| 2026-05-06 09:35 | 27.69427 | -82.41838 | 9841 ft | 286 kts | 339° |
| 2026-05-06 09:35 | 27.71367 | -82.42228 | 9521 ft | 282 kts | 358° |
| 2026-05-06 09:35 | 27.73309 | -82.42211 | 9277 ft | 279 kts | 0° |
| 2026-05-06 09:36 | 27.75245 | -82.42145 | 9032 ft | 278 kts | 1° |
| 2026-05-06 09:36 | 27.77179 | -82.42082 | 8791 ft | 277 kts | 1° |
| 2026-05-06 09:36 | 27.79105 | -82.42025 | 8543 ft | 276 kts | 0° |
| 2026-05-06 09:36 | 27.81024 | -82.41973 | 8299 ft | 275 kts | 0° |
| 2026-05-06 09:37 | 27.82932 | -82.41924 | 8062 ft | 274 kts | 0° |
| 2026-05-06 09:37 | 27.84833 | -82.41877 | 7832 ft | 273 kts | 0° |
| 2026-05-06 09:37 | 27.86729 | -82.41830 | 7586 ft | 272 kts | 0° |
| 2026-05-06 09:37 | 27.88619 | -82.41784 | 7353 ft | 271 kts | 0° |
| 2026-05-06 09:38 | 27.90498 | -82.41738 | 7144 ft | 268 kts | 1° |
| 2026-05-06 09:38 | 27.92330 | -82.41694 | 6954 ft | 260 kts | 1° |
| 2026-05-06 09:38 | 27.94118 | -82.41651 | 6750 ft | 254 kts | 1° |
| 2026-05-06 09:38 | 27.95846 | -82.41609 | 6519 ft | 249 kts | 1° |
| 2026-05-06 09:39 | 27.97584 | -82.41567 | 6286 ft | 245 kts | 1° |
| 2026-05-06 09:39 | 27.99264 | -82.41526 | 6102 ft | 244 kts | 1° |
| 2026-05-06 09:39 | 28.00989 | -82.41484 | 5810 ft | 245 kts | 1° |
| 2026-05-06 09:39 | 28.02696 | -82.41443 | 5584 ft | 246 kts | 0° |
| 2026-05-06 09:40 | 28.04384 | -82.41402 | 5384 ft | 246 kts | 0° |
| 2026-05-06 09:40 | 28.06071 | -82.41360 | 5214 ft | 239 kts | 0° |
| 2026-05-06 09:40 | 28.09295 | -82.41281 | 4835 ft | 224 kts | 360° |
| 2026-05-06 09:41 | 28.10353 | -82.41255 | 4685 ft | 225 kts | 0° |
| 2026-05-06 09:41 | 28.11904 | -82.41219 | 4490 ft | 226 kts | 360° |
| 2026-05-06 09:41 | 28.13482 | -82.41181 | 4282 ft | 227 kts | 0° |
| 2026-05-06 09:41 | 28.15074 | -82.41175 | 4108 ft | 229 kts | 354° |
| 2026-05-06 09:42 | 28.16571 | -82.41716 | 4024 ft | 226 kts | 324° |
| 2026-05-06 09:42 | 28.17543 | -82.43065 | 4018 ft | 223 kts | 290° |
| 2026-05-06 09:42 | 28.17672 | -82.44782 | 4020 ft | 221 kts | 256° |
| 2026-05-06 09:42 | 28.17084 | -82.46374 | 4036 ft | 218 kts | 241° |
| 2026-05-06 09:43 | 28.16344 | -82.47841 | 4017 ft | 207 kts | 239° |
| 2026-05-06 09:43 | 28.15655 | -82.49172 | 3971 ft | 186 kts | 239° |
| 2026-05-06 09:43 | 28.15025 | -82.50398 | 3827 ft | 174 kts | 239° |
| 2026-05-06 09:43 | 28.14429 | -82.51499 | 3677 ft | 154 kts | 231° |
| 2026-05-06 09:44 | 28.13633 | -82.52196 | 3354 ft | 142 kts | 197° |
| 2026-05-06 09:44 | 28.12689 | -82.52350 | 2957 ft | 137 kts | 181° |
| 2026-05-06 09:44 | 28.11742 | -82.52372 | 2563 ft | 134 kts | 180° |
| 2026-05-06 09:44 | 28.10820 | -82.52402 | 2347 ft | 132 kts | 180° |
| 2026-05-06 09:45 | 28.09908 | -82.52437 | 2179 ft | 131 kts | 180° |
| 2026-05-06 09:45 | 28.08996 | -82.52470 | 2020 ft | 131 kts | 180° |
| 2026-05-06 09:45 | 28.08085 | -82.52501 | 1847 ft | 131 kts | 180° |
| 2026-05-06 09:45 | 28.07178 | -82.52532 | 1676 ft | 130 kts | 180° |
| 2026-05-06 09:46 | 28.06280 | -82.52563 | 1502 ft | 129 kts | 179° |
| 2026-05-06 09:46 | 28.05379 | -82.52594 | 1338 ft | 129 kts | 179° |
| 2026-05-06 09:46 | 28.04482 | -82.52624 | 1167 ft | 129 kts | 179° |
| 2026-05-06 09:46 | 28.03582 | -82.52655 | 998 ft | 129 kts | 179° |
| 2026-05-06 09:47 | 28.02685 | -82.52686 | 826 ft | 130 kts | 179° |
| 2026-05-06 09:47 | 28.01771 | -82.52717 | 665 ft | 132 kts | 179° |
| 2026-05-06 09:47 | 28.00848 | -82.52749 | 480 ft | 133 kts | 179° |
| 2026-05-06 09:47 | 27.99917 | -82.52780 | 311 ft | 133 kts | 180° |
| 2026-05-06 09:48 | 27.98990 | -82.52822 | 141 ft | 133 kts | 180° |
| 2026-05-06 09:48 | 27.98055 | -82.52853 | 54 ft | 134 kts | 180° |
| 2026-05-06 09:48 | 27.97207 | -82.52877 | 46 ft | 95 kts | 181° |
| 2026-05-06 09:48 | 27.96753 | -82.52891 | 47 ft | 54 kts | 182° |
| 2026-05-06 09:49 | 27.96548 | -82.52881 | 47 ft | 12 kts | 146° |
| 2026-05-06 09:49 | 27.96527 | -82.52811 | 48 ft | 8 kts | 81° |
| 2026-05-06 09:49 | 27.96558 | -82.52775 | 47 ft | 5 kts | 18° |
| 2026-05-06 09:49 | 27.96593 | -82.52771 | 48 ft | 5 kts | 2° |
| 2026-05-06 09:50 | 27.96625 | -82.52768 | 48 ft | 5 kts | 7° |
| 2026-05-06 09:50 | 27.96656 | -82.52762 | 47 ft | 4 kts | 7° |
| 2026-05-06 09:50 | 27.96702 | -82.52764 | 47 ft | 8 kts | 360° |
| 2026-05-06 09:50 | 27.96758 | -82.52764 | 46 ft | 8 kts | 2° |
| 2026-05-06 09:51 | 27.96810 | -82.52757 | 46 ft | 7 kts | 10° |
| 2026-05-06 09:51 | 27.96855 | -82.52754 | 47 ft | 6 kts | 355° |
| 2026-05-06 09:51 | 27.96903 | -82.52758 | 47 ft | 11 kts | 356° |
| 2026-05-06 09:51 | 27.96991 | -82.52757 | 48 ft | 14 kts | 2° |
| 2026-05-06 09:52 | 27.97084 | -82.52754 | 47 ft | 13 kts | 1° |
| 2026-05-06 09:52 | 27.97167 | -82.52729 | 46 ft | 12 kts | 52° |
| 2026-05-06 09:52 | 27.97181 | -82.52642 | 46 ft | 10 kts | 89° |
| 2026-05-06 09:52 | 27.97179 | -82.52570 | 47 ft | 8 kts | 91° |
| 2026-05-06 09:53 | 27.97177 | -82.52507 | 49 ft | 10 kts | 92° |
| 2026-05-06 09:53 | 27.97176 | -82.52425 | 49 ft | 12 kts | 91° |
| 2026-05-06 09:53 | 27.97173 | -82.52302 | 47 ft | 18 kts | 92° |
| 2026-05-06 09:53 | 27.97173 | -82.52193 | 45 ft | 10 kts | 79° |
| 2026-05-06 09:54 | 27.97224 | -82.52148 | 44 ft | 10 kts | 5° |
| 2026-05-06 09:54 | 27.97288 | -82.52145 | 44 ft | 8 kts | 2° |
| 2026-05-06 09:54 | 27.97350 | -82.52143 | 44 ft | 12 kts | 2° |
| 2026-05-06 09:54 | 27.97434 | -82.52138 | 44 ft | 12 kts | 4° |
| 2026-05-06 09:55 | 27.97496 | -82.52136 | 44 ft | 6 kts | 1° |
| 2026-05-06 09:55 | 27.97536 | -82.52133 | 44 ft | 5 kts | 16° |
| 2026-05-06 09:55 | 27.97546 | -82.52119 | 44 ft | 1 kts | 71° |
| 2026-05-06 09:55 | 27.97545 | -82.52114 | 44 ft | 1 kts | 93° |
| 2026-05-06 09:56 | 27.97539 | -82.52086 | 45 ft | 5 kts | 100° |
| 2026-05-06 09:56 | 27.97537 | -82.52054 | 46 ft | 4 kts | 91° |
| 2026-05-06 09:56 | 27.97537 | -82.52043 | 46 ft | 0 kts | 90° |